Time;durP1;ratioP1;P1;durP2;ratioP2;P2;SDS_P1;SDS_P2;PMS_P1;PMS_P2;Temp;Humidity;BMP_temperature;BMP_pressure;BME280_temperature;BME280_humidity;BME280_pressure;Samples;Min_cycle;Max_cycle;Signal;HPM_P1;HPM_P2
2024/03/19 00:02:01;;;;;;;8.50;4.00;;;;;;;;;;5014126;28;20033;-60
2024/03/19 00:04:26;;;;;;;10.98;4.28;;;;;;;;;;5013890;28;20022;-60
2024/03/19 00:06:51;;;;;;;8.77;3.97;;;;;;;;;;5013260;28;20092;-59
2024/03/19 00:09:17;;;;;;;9.00;4.00;;;;;;;;;;5014224;28;20386;-58
2024/03/19 00:11:42;;;;;;;8.68;4.60;;;;;;;;;;5014329;28;20113;-58
2024/03/19 00:14:08;;;;;;;10.43;4.23;;;;;;;;;;5013623;28;20026;-59
2024/03/19 00:16:33;;;;;;;10.80;4.45;;;;;;;;;;5013878;28;20467;-59
2024/03/19 00:18:58;;;;;;;9.45;4.15;;;;;;;;;;5014452;28;20030;-59
2024/03/19 00:21:24;;;;;;;8.85;3.72;;;;;;;;;;5013280;28;20540;-59
2024/03/19 00:23:49;;;;;;;12.82;4.28;;;;;;;;;;5010917;28;20079;-60
2024/03/19 00:26:14;;;;;;;12.10;4.30;;;;;;;;;;5013614;28;20022;-59
2024/03/19 00:28:39;;;;;;;10.77;4.67;;;;;;;;;;5012688;28;20026;-58
2024/03/19 00:31:06;;;;;;;11.03;4.30;;;;;;;;;;5014162;28;20925;-58
2024/03/19 00:33:31;;;;;;;13.43;4.63;;;;;;;;;;5013692;28;20022;-59
2024/03/19 00:35:56;;;;;;;11.05;4.80;;;;;;;;;;5015404;28;20481;-59
2024/03/19 00:38:22;;;;;;;9.80;4.45;;;;;;;;;;5024061;28;20038;-59
2024/03/19 00:40:47;;;;;;;13.02;4.90;;;;;;;;;;5033800;28;20025;-59
2024/03/19 00:43:12;;;;;;;10.07;4.63;;;;;;;;;;5023515;28;20041;-60
2024/03/19 00:45:38;;;;;;;10.05;4.55;;;;;;;;;;5034423;28;20022;-59
2024/03/19 00:48:04;;;;;;;10.60;4.43;;;;;;;;;;5017955;28;20030;-59
2024/03/19 00:50:29;;;;;;;11.05;4.95;;;;;;;;;;5026739;28;20028;-59
2024/03/19 00:52:54;;;;;;;11.48;4.32;;;;;;;;;;5029371;28;20057;-60
2024/03/19 00:55:20;;;;;;;12.33;4.90;;;;;;;;;;5029508;28;20029;-59
2024/03/19 00:57:45;;;;;;;9.73;4.73;;;;;;;;;;5014607;28;20367;-58
2024/03/19 01:00:11;;;;;;;8.82;4.63;;;;;;;;;;5013327;28;20101;-60
2024/03/19 01:02:39;;;;;;;12.30;4.35;;;;;;;;;;5014117;28;20057;-59
2024/03/19 01:05:08;;;;;;;10.10;4.75;;;;;;;;;;5016317;28;20453;-59
2024/03/19 01:07:33;;;;;;;10.35;4.50;;;;;;;;;;5027824;28;20033;-59
2024/03/19 01:09:59;;;;;;;10.20;4.93;;;;;;;;;;5034236;28;20029;-59
2024/03/19 01:12:24;;;;;;;9.52;4.20;;;;;;;;;;5034092;28;20026;-60
2024/03/19 01:14:49;;;;;;;11.45;4.78;;;;;;;;;;5030198;28;20030;-59
2024/03/19 01:17:14;;;;;;;9.60;4.47;;;;;;;;;;5046929;28;20125;-61
2024/03/19 01:19:39;;;;;;;10.77;5.00;;;;;;;;;;5032945;28;20616;-58
2024/03/19 01:22:06;;;;;;;11.80;4.37;;;;;;;;;;5017678;28;20419;-60
2024/03/19 01:24:33;;;;;;;11.27;4.55;;;;;;;;;;5013537;28;20571;-59
2024/03/19 01:26:58;;;;;;;11.27;4.78;;;;;;;;;;5013000;28;20030;-59
2024/03/19 01:29:23;;;;;;;10.10;4.22;;;;;;;;;;5013422;28;20045;-59
2024/03/19 01:31:48;;;;;;;11.32;4.75;;;;;;;;;;5015773;28;20037;-58
2024/03/19 01:34:13;;;;;;;10.63;4.60;;;;;;;;;;5019141;28;20014;-59
2024/03/19 01:36:39;;;;;;;12.17;4.80;;;;;;;;;;5024712;28;20088;-59
2024/03/19 01:39:04;;;;;;;12.45;4.43;;;;;;;;;;5026071;28;20022;-60
2024/03/19 01:41:29;;;;;;;9.45;4.30;;;;;;;;;;5025737;28;20030;-60
2024/03/19 01:43:54;;;;;;;12.00;4.47;;;;;;;;;;5020632;28;20032;-59
2024/03/19 01:46:19;;;;;;;13.80;4.77;;;;;;;;;;5019291;28;20018;-60
2024/03/19 01:48:45;;;;;;;9.00;4.10;;;;;;;;;;5016486;28;20030;-60
2024/03/19 01:51:10;;;;;;;8.90;4.17;;;;;;;;;;5015427;28;20056;-60
2024/03/19 01:53:35;;;;;;;11.07;5.10;;;;;;;;;;5022676;28;20025;-60
2024/03/19 01:56:00;;;;;;;14.43;5.28;;;;;;;;;;5029986;28;20038;-59
2024/03/19 01:58:28;;;;;;;12.30;4.80;;;;;;;;;;5039790;28;20026;-59
2024/03/19 02:00:53;;;;;;;9.75;4.35;;;;;;;;;;5017796;28;20022;-58
2024/03/19 02:03:18;;;;;;;12.13;5.17;;;;;;;;;;5032795;28;20092;-59
2024/03/19 02:05:45;;;;;;;10.68;4.18;;;;;;;;;;5015976;28;20448;-59
2024/03/19 02:08:11;;;;;;;10.93;4.70;;;;;;;;;;5014685;28;20049;-59
2024/03/19 02:10:37;;;;;;;10.98;4.90;;;;;;;;;;5014060;28;20598;-59
2024/03/19 02:13:02;;;;;;;10.57;4.93;;;;;;;;;;5012470;28;20069;-59
2024/03/19 02:15:27;;;;;;;10.50;4.80;;;;;;;;;;5010519;28;20026;-59
2024/03/19 02:17:52;;;;;;;12.18;4.43;;;;;;;;;;5008357;28;20080;-59
2024/03/19 02:20:19;;;;;;;9.52;4.22;;;;;;;;;;5011315;28;20100;-59
2024/03/19 02:22:47;;;;;;;9.30;4.13;;;;;;;;;;4992446;28;20026;-59
2024/03/19 02:25:12;;;;;;;11.55;5.10;;;;;;;;;;4994413;28;20387;-59
2024/03/19 02:27:38;;;;;;;11.23;4.50;;;;;;;;;;5012032;28;20018;-59
2024/03/19 02:30:03;;;;;;;11.33;4.53;;;;;;;;;;5010967;28;20022;-60
2024/03/19 02:32:28;;;;;;;10.98;4.55;;;;;;;;;;5010806;28;20045;-60
2024/03/19 02:34:53;;;;;;;11.30;4.85;;;;;;;;;;5011409;28;20018;-59
2024/03/19 02:37:18;;;;;;;11.30;4.60;;;;;;;;;;5013293;28;20030;-59
2024/03/19 02:39:45;;;;;;;10.48;5.30;;;;;;;;;;5015594;28;20040;-60
2024/03/19 02:42:10;;;;;;;8.60;4.30;;;;;;;;;;5023689;28;20065;-59
2024/03/19 02:44:35;;;;;;;10.88;5.15;;;;;;;;;;5026559;28;20108;-59
2024/03/19 02:47:01;;;;;;;11.32;4.53;;;;;;;;;;5021571;28;20026;-58
2024/03/19 02:49:26;;;;;;;11.52;4.88;;;;;;;;;;5020190;28;20097;-59
2024/03/19 02:51:51;;;;;;;11.20;4.60;;;;;;;;;;5026617;28;20045;-59
2024/03/19 02:54:16;;;;;;;13.93;5.03;;;;;;;;;;5024323;28;20028;-64
2024/03/19 02:56:42;;;;;;;10.23;4.70;;;;;;;;;;5024585;28;20030;-60
2024/03/19 02:59:07;;;;;;;11.13;4.97;;;;;;;;;;5020537;28;20457;-59
2024/03/19 03:01:33;;;;;;;9.43;4.20;;;;;;;;;;5021868;28;20478;-59
2024/03/19 03:03:58;;;;;;;10.27;4.80;;;;;;;;;;5022453;28;20406;-59
2024/03/19 03:06:25;;;;;;;10.47;4.90;;;;;;;;;;5027655;28;20057;-61
2024/03/19 03:08:51;;;;;;;12.50;5.00;;;;;;;;;;5032496;28;20105;-59
2024/03/19 03:11:16;;;;;;;11.95;4.93;;;;;;;;;;5025673;28;20061;-58
2024/03/19 03:13:41;;;;;;;11.50;4.90;;;;;;;;;;5011456;28;20061;-59
2024/03/19 03:16:06;;;;;;;10.82;4.07;;;;;;;;;;5010454;28;20013;-59
2024/03/19 03:18:32;;;;;;;12.23;5.03;;;;;;;;;;5011413;28;20030;-59
2024/03/19 03:20:57;;;;;;;12.70;4.85;;;;;;;;;;5011402;28;20022;-59
2024/03/19 03:23:22;;;;;;;13.50;5.20;;;;;;;;;;5009545;28;20121;-59
2024/03/19 03:25:48;;;;;;;11.90;5.00;;;;;;;;;;5008445;28;20030;-58
2024/03/19 03:28:13;;;;;;;11.45;5.10;;;;;;;;;;5009228;28;20018;-58
2024/03/19 03:30:39;;;;;;;12.88;5.32;;;;;;;;;;5010888;28;20128;-59
2024/03/19 03:33:04;;;;;;;12.63;4.85;;;;;;;;;;5010508;28;20029;-59
2024/03/19 03:35:30;;;;;;;12.48;5.40;;;;;;;;;;5010847;28;20026;-60
2024/03/19 03:37:55;;;;;;;12.18;5.20;;;;;;;;;;5011053;28;20024;-60
2024/03/19 03:40:23;;;;;;;11.57;4.90;;;;;;;;;;5008951;28;20029;-59
2024/03/19 03:42:48;;;;;;;11.50;4.78;;;;;;;;;;5010272;28;20034;-59
2024/03/19 03:45:17;;;;;;;9.80;4.50;;;;;;;;;;5010976;28;20276;-59
2024/03/19 03:47:42;;;;;;;12.77;5.28;;;;;;;;;;5011599;28;20018;-59
2024/03/19 03:50:08;;;;;;;13.07;5.43;;;;;;;;;;5009504;28;20021;-59
2024/03/19 03:52:33;;;;;;;12.70;5.15;;;;;;;;;;5009479;28;20037;-58
2024/03/19 03:55:00;;;;;;;13.73;5.15;;;;;;;;;;5009146;28;20034;-60
2024/03/19 03:57:25;;;;;;;10.13;4.97;;;;;;;;;;5010700;28;20109;-58
2024/03/19 03:59:51;;;;;;;10.57;5.03;;;;;;;;;;5010748;28;20175;-58
2024/03/19 04:02:16;;;;;;;10.73;4.45;;;;;;;;;;5011680;28;20072;-58
2024/03/19 04:04:41;;;;;;;10.63;5.20;;;;;;;;;;5012140;28;20018;-59
2024/03/19 04:07:07;;;;;;;10.57;4.82;;;;;;;;;;5017880;28;20465;-59
2024/03/19 04:09:32;;;;;;;11.27;5.05;;;;;;;;;;5030990;28;20093;-59
2024/03/19 04:11:57;;;;;;;12.47;4.77;;;;;;;;;;5029708;28;20029;-60
2024/03/19 04:14:22;;;;;;;11.02;5.07;;;;;;;;;;5015045;28;20139;-59
2024/03/19 04:16:47;;;;;;;10.77;4.50;;;;;;;;;;5012609;28;20034;-60
2024/03/19 04:19:13;;;;;;;14.20;5.43;;;;;;;;;;5014639;28;20026;-60
2024/03/19 04:21:38;;;;;;;10.07;4.97;;;;;;;;;;5014240;28;20060;-59
2024/03/19 04:24:03;;;;;;;10.77;4.87;;;;;;;;;;5005787;28;20133;-60
2024/03/19 04:26:28;;;;;;;10.90;4.82;;;;;;;;;;4999584;28;20030;-60
2024/03/19 04:28:54;;;;;;;10.65;4.88;;;;;;;;;;5018511;28;20041;-59
2024/03/19 04:31:20;;;;;;;11.43;5.10;;;;;;;;;;5021441;28;20095;-63
2024/03/19 04:33:45;;;;;;;10.60;4.63;;;;;;;;;;5028309;28;20083;-60
2024/03/19 04:36:10;;;;;;;11.20;4.65;;;;;;;;;;5011027;28;20018;-59
2024/03/19 04:38:35;;;;;;;12.27;4.63;;;;;;;;;;5014594;28;20033;-59
2024/03/19 04:41:01;;;;;;;10.70;4.50;;;;;;;;;;5014514;28;20030;-59
2024/03/19 04:43:26;;;;;;;10.88;4.57;;;;;;;;;;5013121;28;20026;-60
2024/03/19 04:45:51;;;;;;;12.98;5.22;;;;;;;;;;5013560;28;20014;-59
2024/03/19 04:48:17;;;;;;;11.40;4.80;;;;;;;;;;5013528;28;20109;-60
2024/03/19 04:50:42;;;;;;;10.55;4.97;;;;;;;;;;5013272;28;20441;-59
2024/03/19 04:53:07;;;;;;;11.02;4.50;;;;;;;;;;5013621;28;20022;-58
2024/03/19 04:55:32;;;;;;;10.37;5.10;;;;;;;;;;5013860;28;20040;-60
2024/03/19 04:57:57;;;;;;;13.60;5.57;;;;;;;;;;5013604;28;20141;-60
2024/03/19 05:00:22;;;;;;;13.00;5.60;;;;;;;;;;5009175;28;20037;-59
2024/03/19 05:02:48;;;;;;;11.77;5.00;;;;;;;;;;5015936;28;20057;-59
2024/03/19 05:05:13;;;;;;;12.43;5.77;;;;;;;;;;5013123;28;21006;-58
2024/03/19 05:07:39;;;;;;;11.27;4.50;;;;;;;;;;5014019;28;20033;-59
2024/03/19 05:10:04;;;;;;;13.07;4.93;;;;;;;;;;5013382;28;20018;-58
2024/03/19 05:12:29;;;;;;;11.02;5.00;;;;;;;;;;5011157;28;20033;-59
2024/03/19 05:14:56;;;;;;;12.83;5.60;;;;;;;;;;5011339;28;20033;-59
2024/03/19 05:17:21;;;;;;;13.45;5.07;;;;;;;;;;5016014;28;20398;-60
2024/03/19 05:19:46;;;;;;;13.20;5.15;;;;;;;;;;5013141;28;20022;-59
2024/03/19 05:22:11;;;;;;;13.38;5.60;;;;;;;;;;5005548;28;20041;-58
2024/03/19 05:24:38;;;;;;;12.13;5.47;;;;;;;;;;5008793;28;20017;-60
2024/03/19 05:27:03;;;;;;;12.20;4.75;;;;;;;;;;5023835;28;20101;-59
2024/03/19 05:29:28;;;;;;;12.07;5.17;;;;;;;;;;5005120;28;20104;-59
2024/03/19 05:31:54;;;;;;;14.32;5.03;;;;;;;;;;5009183;28;20021;-59
2024/03/19 05:34:19;;;;;;;14.05;5.65;;;;;;;;;;5008271;28;20129;-58
2024/03/19 05:36:46;;;;;;;12.43;4.70;;;;;;;;;;5002878;28;20038;-59
2024/03/19 05:39:11;;;;;;;14.45;5.03;;;;;;;;;;5004026;28;20022;-59
2024/03/19 05:41:36;;;;;;;10.87;4.60;;;;;;;;;;5009025;28;20524;-63
2024/03/19 05:44:02;;;;;;;14.03;5.20;;;;;;;;;;5009426;28;20028;-60
2024/03/19 05:46:27;;;;;;;11.25;5.15;;;;;;;;;;5023800;28;20018;-60
2024/03/19 05:48:52;;;;;;;11.73;5.13;;;;;;;;;;4997031;28;20034;-59
2024/03/19 05:51:17;;;;;;;11.32;4.88;;;;;;;;;;5004007;28;20053;-59
2024/03/19 05:53:43;;;;;;;11.07;4.90;;;;;;;;;;5008584;28;20029;-60
2024/03/19 05:56:09;;;;;;;9.93;4.77;;;;;;;;;;5003778;28;20032;-60
2024/03/19 05:58:35;;;;;;;12.40;4.95;;;;;;;;;;5004455;28;20053;-59
2024/03/19 06:01:00;;;;;;;11.60;5.00;;;;;;;;;;5004214;28;20033;-59
2024/03/19 06:03:25;;;;;;;11.75;5.45;;;;;;;;;;5005354;28;20034;-59
2024/03/19 06:05:58;;;;;;;10.83;5.20;;;;;;;;;;5006503;28;20018;-60
2024/03/19 06:08:24;;;;;;;11.57;4.80;;;;;;;;;;5010387;28;20034;-59
2024/03/19 06:10:49;;;;;;;11.68;5.30;;;;;;;;;;5014067;28;20097;-60
2024/03/19 06:13:15;;;;;;;11.30;5.53;;;;;;;;;;5022987;28;20022;-60
2024/03/19 06:15:40;;;;;;;15.63;6.07;;;;;;;;;;5024334;28;20028;-59
2024/03/19 06:18:05;;;;;;;13.97;5.50;;;;;;;;;;5012353;28;20926;-59
2024/03/19 06:20:31;;;;;;;11.50;5.80;;;;;;;;;;5003729;28;20105;-59
2024/03/19 06:22:57;;;;;;;15.82;6.70;;;;;;;;;;5011819;28;20076;-60
2024/03/19 06:25:22;;;;;;;13.43;6.15;;;;;;;;;;5011167;28;20053;-59
2024/03/19 06:27:47;;;;;;;13.60;6.15;;;;;;;;;;5010223;28;20041;-59
2024/03/19 06:30:14;;;;;;;13.95;6.25;;;;;;;;;;5011231;28;20045;-59
2024/03/19 06:32:39;;;;;;;14.48;5.65;;;;;;;;;;5011895;28;20022;-60
2024/03/19 06:35:05;;;;;;;11.33;5.50;;;;;;;;;;5012229;28;20028;-64
2024/03/19 06:37:30;;;;;;;11.50;5.85;;;;;;;;;;5013375;28;20018;-60
2024/03/19 06:39:56;;;;;;;16.05;6.32;;;;;;;;;;5023129;28;20022;-60
2024/03/19 06:42:21;;;;;;;13.20;5.57;;;;;;;;;;5020817;28;20133;-60
2024/03/19 06:44:46;;;;;;;12.47;6.10;;;;;;;;;;5009623;28;20026;-59
2024/03/19 06:47:11;;;;;;;15.73;6.15;;;;;;;;;;5009569;28;20017;-59
2024/03/19 06:49:36;;;;;;;13.65;5.78;;;;;;;;;;5012359;28;20730;-59
2024/03/19 06:52:01;;;;;;;16.23;6.90;;;;;;;;;;5011632;28;20045;-60
2024/03/19 06:54:27;;;;;;;15.60;6.87;;;;;;;;;;5012617;28;20108;-60
2024/03/19 06:56:52;;;;;;;14.53;7.07;;;;;;;;;;5015025;28;20101;-59
2024/03/19 06:59:19;;;;;;;14.20;6.60;;;;;;;;;;5017616;28;20099;-60
2024/03/19 07:01:44;;;;;;;14.63;6.43;;;;;;;;;;5017715;28;20022;-60
2024/03/19 07:04:09;;;;;;;15.67;7.23;;;;;;;;;;5019659;28;20017;-59
2024/03/19 07:06:35;;;;;;;17.40;6.83;;;;;;;;;;5029011;28;20108;-60
2024/03/19 07:09:00;;;;;;;15.20;6.40;;;;;;;;;;5011201;28;20018;-60
2024/03/19 07:11:25;;;;;;;13.88;6.47;;;;;;;;;;5011670;28;20036;-58
2024/03/19 07:13:51;;;;;;;14.50;6.90;;;;;;;;;;5011622;28;20034;-59
2024/03/19 07:16:19;;;;;;;14.10;6.20;;;;;;;;;;5008591;28;20029;-60
2024/03/19 07:18:44;;;;;;;15.50;6.90;;;;;;;;;;5008771;28;20633;-59
2024/03/19 07:21:10;;;;;;;13.17;6.17;;;;;;;;;;5011239;28;20018;-58
2024/03/19 07:23:35;;;;;;;14.73;7.20;;;;;;;;;;5011034;28;20033;-59
2024/03/19 07:26:00;;;;;;;14.27;6.77;;;;;;;;;;5010945;28;20026;-59
2024/03/19 07:28:25;;;;;;;16.73;7.03;;;;;;;;;;5010246;28;20030;-59
2024/03/19 07:30:51;;;;;;;15.17;7.40;;;;;;;;;;5010064;28;20420;-59
2024/03/19 07:33:17;;;;;;;13.73;7.00;;;;;;;;;;5007113;28;20045;-59
2024/03/19 07:35:43;;;;;;;14.60;6.70;;;;;;;;;;5011241;28;20014;-60
2024/03/19 07:38:08;;;;;;;14.95;6.93;;;;;;;;;;5010522;28;20553;-59
2024/03/19 07:40:34;;;;;;;14.20;6.93;;;;;;;;;;5015017;28;20103;-60
2024/03/19 07:42:59;;;;;;;13.82;7.07;;;;;;;;;;5017737;28;20036;-60
2024/03/19 07:45:25;;;;;;;14.83;6.80;;;;;;;;;;5017659;28;20065;-59
2024/03/19 07:47:50;;;;;;;14.35;7.28;;;;;;;;;;5017775;28;20359;-58
2024/03/19 07:50:18;;;;;;;13.15;6.78;;;;;;;;;;5012836;28;20038;-59
2024/03/19 07:52:46;;;;;;;15.27;6.63;;;;;;;;;;5014949;28;20025;-59
2024/03/19 07:55:12;;;;;;;13.93;7.30;;;;;;;;;;5034338;28;20025;-60
2024/03/19 07:57:37;;;;;;;15.13;7.10;;;;;;;;;;5016831;28;20040;-59
2024/03/19 08:00:09;;;;;;;13.40;6.77;;;;;;;;;;5018836;28;20041;-59
2024/03/19 08:02:38;;;;;;;14.27;7.10;;;;;;;;;;5018816;28;20375;-60
2024/03/19 08:05:03;;;;;;;13.55;6.80;;;;;;;;;;5019965;28;20022;-58
2024/03/19 08:07:28;;;;;;;15.73;6.90;;;;;;;;;;5016269;28;20052;-59
2024/03/19 08:09:53;;;;;;;15.77;6.90;;;;;;;;;;5015858;28;20026;-60
2024/03/19 08:12:19;;;;;;;15.23;6.70;;;;;;;;;;5014563;28;20636;-59
2024/03/19 08:14:44;;;;;;;14.65;6.70;;;;;;;;;;5015977;28;20026;-59
2024/03/19 08:17:09;;;;;;;11.60;6.70;;;;;;;;;;5018445;28;20033;-59
2024/03/19 08:19:35;;;;;;;15.07;6.87;;;;;;;;;;5019942;28;20057;-60
2024/03/19 08:22:00;;;;;;;11.73;6.20;;;;;;;;;;5017572;28;20076;-59
2024/03/19 08:24:25;;;;;;;14.47;6.30;;;;;;;;;;5016170;28;20163;-60
2024/03/19 08:26:51;;;;;;;12.77;6.85;;;;;;;;;;5020013;28;20022;-60
2024/03/19 08:29:16;;;;;;;15.70;6.93;;;;;;;;;;5029148;28;20029;-63
2024/03/19 08:31:41;;;;;;;15.30;6.33;;;;;;;;;;5025888;28;20493;-60
2024/03/19 08:34:06;;;;;;;13.45;6.65;;;;;;;;;;5014077;28;20025;-60
2024/03/19 08:36:35;;;;;;;12.75;7.00;;;;;;;;;;5013823;28;20021;-60
2024/03/19 08:39:00;;;;;;;15.38;7.05;;;;;;;;;;5010895;28;20029;-59
2024/03/19 08:41:25;;;;;;;12.90;6.90;;;;;;;;;;5013369;28;20501;-60
2024/03/19 08:43:51;;;;;;;18.38;7.13;;;;;;;;;;5013448;28;20021;-61
2024/03/19 08:46:20;;;;;;;13.53;6.43;;;;;;;;;;5013371;28;20026;-60
2024/03/19 08:48:46;;;;;;;11.35;6.03;;;;;;;;;;5013947;28;20474;-59
2024/03/19 08:51:11;;;;;;;14.30;6.43;;;;;;;;;;5014159;28;20022;-59
2024/03/19 08:53:36;;;;;;;13.30;6.28;;;;;;;;;;5012969;28;20091;-59
2024/03/19 08:56:02;;;;;;;12.60;6.53;;;;;;;;;;5013106;28;20022;-59
2024/03/19 08:58:27;;;;;;;14.77;7.13;;;;;;;;;;5013826;28;20113;-61
2024/03/19 09:00:52;;;;;;;11.77;6.15;;;;;;;;;;5014089;28;20018;-59
2024/03/19 09:03:17;;;;;;;11.43;6.07;;;;;;;;;;5014649;28;20208;-60
2024/03/19 09:05:42;;;;;;;13.20;6.70;;;;;;;;;;5013413;28;20037;-60
2024/03/19 09:08:07;;;;;;;11.13;6.18;;;;;;;;;;5012351;28;20479;-60
2024/03/19 09:10:33;;;;;;;11.70;5.77;;;;;;;;;;5013562;28;20057;-58
2024/03/19 09:12:58;;;;;;;12.45;6.10;;;;;;;;;;5012892;28;20026;-59
2024/03/19 09:15:26;;;;;;;9.95;6.10;;;;;;;;;;5013286;28;20026;-59
2024/03/19 09:17:53;;;;;;;11.00;6.18;;;;;;;;;;5013817;28;20041;-60
2024/03/19 09:20:18;;;;;;;13.23;6.05;;;;;;;;;;5012018;28;20548;-59
2024/03/19 09:22:44;;;;;;;11.13;5.93;;;;;;;;;;5013237;28;20078;-60
2024/03/19 09:25:09;;;;;;;13.27;6.25;;;;;;;;;;5012798;28;20115;-60
2024/03/19 09:27:39;;;;;;;11.50;5.33;;;;;;;;;;5013130;28;20089;-59
2024/03/19 09:30:04;;;;;;;9.35;5.32;;;;;;;;;;5013070;28;20022;-60
2024/03/19 09:32:29;;;;;;;11.57;5.93;;;;;;;;;;5013751;28;20437;-59
2024/03/19 09:34:55;;;;;;;10.70;5.22;;;;;;;;;;5013251;28;20028;-60
2024/03/19 09:37:22;;;;;;;11.73;5.57;;;;;;;;;;5012504;28;20030;-59
2024/03/19 09:39:47;;;;;;;11.00;5.75;;;;;;;;;;5010587;28;20020;-60
2024/03/19 09:42:14;;;;;;;11.27;5.47;;;;;;;;;;5011865;28;20409;-61
2024/03/19 09:44:39;;;;;;;;;;;;;;;;;;5013060;28;20434;-60
2024/03/19 09:47:04;;;;;;;9.50;5.18;;;;;;;;;;5012755;28;20273;-60
2024/03/19 09:49:34;;;;;;;9.23;4.87;;;;;;;;;;5012949;28;20026;-59
2024/03/19 09:52:03;;;;;;;11.50;5.45;;;;;;;;;;5012043;28;20026;-60
2024/03/19 09:54:28;;;;;;;9.27;4.63;;;;;;;;;;5009975;28;20045;-59
2024/03/19 09:56:53;;;;;;;9.77;4.57;;;;;;;;;;5013047;28;20467;-60
2024/03/19 09:59:19;;;;;;;9.80;4.38;;;;;;;;;;5012831;28;20026;-61
2024/03/19 10:01:44;;;;;;;8.07;4.53;;;;;;;;;;5014475;28;20425;-59
2024/03/19 10:04:13;;;;;;;9.20;4.30;;;;;;;;;;5014314;28;20034;-59
2024/03/19 10:06:39;;;;;;;8.30;4.13;;;;;;;;;;5013148;28;20041;-59
2024/03/19 10:09:08;;;;;;;8.93;4.07;;;;;;;;;;5012458;28;20026;-60
2024/03/19 10:11:33;;;;;;;7.82;4.00;;;;;;;;;;4993646;28;20034;-60
2024/03/19 10:13:58;;;;;;;9.90;4.47;;;;;;;;;;4994338;28;20398;-59
2024/03/19 10:16:24;;;;;;;7.07;3.60;;;;;;;;;;5008791;28;20318;-61
2024/03/19 10:18:50;;;;;;;6.78;3.03;;;;;;;;;;4994964;28;20474;-61
2024/03/19 10:21:15;;;;;;;9.13;3.87;;;;;;;;;;5033387;28;20030;-59
2024/03/19 10:23:40;;;;;;;6.70;3.37;;;;;;;;;;5014122;28;20371;-59
2024/03/19 10:26:05;;;;;;;8.50;3.07;;;;;;;;;;5026912;28;20033;-59
2024/03/19 10:28:30;;;;;;;6.03;2.97;;;;;;;;;;5012140;28;20374;-60
2024/03/19 10:30:56;;;;;;;6.27;2.80;;;;;;;;;;5010739;28;20389;-59
2024/03/19 10:33:21;;;;;;;7.07;3.33;;;;;;;;;;5012321;28;20026;-60
2024/03/19 10:35:47;;;;;;;9.93;3.90;;;;;;;;;;5010775;28;20026;-59
2024/03/19 10:38:13;;;;;;;7.03;3.17;;;;;;;;;;5014410;28;20070;-59
2024/03/19 10:40:41;;;;;;;7.57;3.22;;;;;;;;;;4995211;28;20034;-60
2024/03/19 10:43:10;;;;;;;;;;;;;;;;;;4994204;28;20043;-59
2024/03/19 10:45:36;;;;;;;7.47;3.40;;;;;;;;;;4993879;28;19928;-59
2024/03/19 10:48:01;;;;;;;6.85;3.60;;;;;;;;;;4992944;28;20026;-59
2024/03/19 10:50:27;;;;;;;7.45;3.88;;;;;;;;;;5003546;28;20391;-60
2024/03/19 10:52:55;;;;;;;8.68;3.47;;;;;;;;;;5012787;28;20394;-60
2024/03/19 10:55:20;;;;;;;7.05;2.88;;;;;;;;;;5030534;28;20029;-59
2024/03/19 10:57:47;;;;;;;6.05;2.80;;;;;;;;;;5012516;28;20148;-59
2024/03/19 11:00:23;;;;;;;6.97;2.63;;;;;;;;;;5010741;28;20441;-59
2024/03/19 11:02:49;;;;;;;8.07;3.88;;;;;;;;;;5012237;28;20485;-60
2024/03/19 11:05:19;;;;;;;7.55;3.22;;;;;;;;;;5010935;28;20021;-59
2024/03/19 11:07:45;;;;;;;7.03;2.75;;;;;;;;;;5012105;28;20022;-60
2024/03/19 11:10:19;;;;;;;7.05;2.80;;;;;;;;;;5012402;28;20022;-60
2024/03/19 11:12:44;;;;;;;6.55;2.60;;;;;;;;;;5012054;28;20014;-60
2024/03/19 11:15:13;;;;;;;6.40;2.87;;;;;;;;;;5027452;28;20043;-60
2024/03/19 11:17:38;;;;;;;6.93;2.92;;;;;;;;;;5011847;28;20804;-60
2024/03/19 11:20:04;;;;;;;6.27;3.00;;;;;;;;;;5012264;28;20026;-59
2024/03/19 11:22:30;;;;;;;6.85;3.30;;;;;;;;;;5011910;28;20033;-60
2024/03/19 11:24:58;;;;;;;6.32;2.88;;;;;;;;;;5025528;28;20020;-60
2024/03/19 11:27:31;;;;;;;8.55;3.50;;;;;;;;;;5027677;28;20037;-60
2024/03/19 11:30:04;;;;;;;6.97;3.40;;;;;;;;;;5024110;28;20033;-60
2024/03/19 11:32:29;;;;;;;8.50;3.45;;;;;;;;;;5029189;28;20021;-60
2024/03/19 11:34:55;;;;;;;8.00;3.38;;;;;;;;;;5021462;28;20363;-60
2024/03/19 11:37:20;;;;;;;6.93;3.17;;;;;;;;;;5022255;28;20013;-61
2024/03/19 11:39:47;;;;;;;6.55;2.88;;;;;;;;;;5025523;28;20026;-60
2024/03/19 11:42:12;;;;;;;;;;;;;;;;;;5028416;28;20034;-63
2024/03/19 11:44:37;;;;;;;6.05;2.80;;;;;;;;;;5018987;28;20044;-60
2024/03/19 11:47:04;;;;;;;6.43;2.87;;;;;;;;;;5018872;28;20030;-60
2024/03/19 11:49:30;;;;;;;6.55;2.80;;;;;;;;;;5015373;28;20509;-60
2024/03/19 11:51:59;;;;;;;6.88;3.00;;;;;;;;;;5017221;28;20026;-60
2024/03/19 11:54:26;;;;;;;7.18;3.60;;;;;;;;;;5016677;28;20436;-60
2024/03/19 11:56:54;;;;;;;6.78;2.80;;;;;;;;;;5016574;28;20064;-59
2024/03/19 11:59:19;;;;;;;7.43;2.80;;;;;;;;;;5015696;28;20018;-59
2024/03/19 12:01:46;;;;;;;7.97;3.38;;;;;;;;;;5014562;28;20125;-62
2024/03/19 12:04:11;;;;;;;7.28;2.95;;;;;;;;;;5013237;28;20094;-59
2024/03/19 12:06:36;;;;;;;7.00;3.65;;;;;;;;;;5014516;28;20359;-58
2024/03/19 12:09:02;;;;;;;9.10;3.13;;;;;;;;;;5014919;28;20021;-60
2024/03/19 12:11:27;;;;;;;5.88;2.90;;;;;;;;;;5015540;28;20021;-59
2024/03/19 12:13:52;;;;;;;7.70;3.40;;;;;;;;;;5014074;28;20026;-61
2024/03/19 12:16:18;;;;;;;6.30;2.80;;;;;;;;;;5015551;28;20053;-60
2024/03/19 12:18:43;;;;;;;6.13;3.07;;;;;;;;;;5016006;28;20010;-59
2024/03/19 12:21:18;;;;;;;8.70;3.33;;;;;;;;;;5013519;28;20053;-59
2024/03/19 12:23:43;;;;;;;7.07;2.97;;;;;;;;;;5017999;28;20022;-60
2024/03/19 12:26:10;;;;;;;7.37;2.80;;;;;;;;;;5017264;28;20022;-60
2024/03/19 12:28:39;;;;;;;5.70;2.83;;;;;;;;;;5021034;28;20018;-59
2024/03/19 12:31:05;;;;;;;6.25;3.20;;;;;;;;;;5013776;28;20022;-61
2024/03/19 12:34:05;;;;;;;7.47;3.40;;;;;;;;;;5020995;28;20021;-59
2024/03/19 12:36:17;;;;;;;7.57;3.20;;;;;;;;;;5015098;28;20113;-60
2024/03/19 12:38:42;;;;;;;8.07;2.65;;;;;;;;;;5011247;28;20045;-60
2024/03/19 12:41:07;;;;;;;6.80;3.03;;;;;;;;;;5014410;28;20022;-60
2024/03/19 12:43:34;;;;;;;6.38;3.03;;;;;;;;;;5016724;28;20026;-60
2024/03/19 12:45:59;;;;;;;6.38;2.90;;;;;;;;;;5016179;28;20246;-59
2024/03/19 12:48:24;;;;;;;6.23;2.63;;;;;;;;;;5015787;28;20029;-61
2024/03/19 12:50:50;;;;;;;6.82;3.13;;;;;;;;;;5014044;28;20377;-61
2024/03/19 12:53:15;;;;;;;6.07;2.40;;;;;;;;;;5013651;28;20018;-60
2024/03/19 12:55:40;;;;;;;5.45;2.80;;;;;;;;;;5013274;28;20036;-59
2024/03/19 12:58:06;;;;;;;6.27;2.50;;;;;;;;;;5013917;28;20026;-62
2024/03/19 13:00:31;;;;;;;5.50;2.65;;;;;;;;;;5011084;28;20030;-59
2024/03/19 13:02:58;;;;;;;5.75;2.50;;;;;;;;;;5013320;28;20026;-60
2024/03/19 13:05:23;;;;;;;4.80;2.25;;;;;;;;;;5011379;28;20033;-59
2024/03/19 13:07:50;;;;;;;5.43;2.50;;;;;;;;;;5009678;28;20473;-60
2024/03/19 13:10:20;;;;;;;6.03;2.15;;;;;;;;;;5009954;28;20026;-60
2024/03/19 13:12:46;;;;;;;5.95;2.60;;;;;;;;;;5010276;28;20367;-61
2024/03/19 13:15:11;;;;;;;5.28;2.40;;;;;;;;;;5011003;28;20018;-63
2024/03/19 13:17:36;;;;;;;6.33;2.30;;;;;;;;;;5010694;28;20550;-61
2024/03/19 13:20:04;;;;;;;5.95;2.40;;;;;;;;;;5012438;28;20030;-60
2024/03/19 13:22:29;;;;;;;4.97;2.25;;;;;;;;;;5034493;28;20029;-63
2024/03/19 13:24:54;;;;;;;5.78;2.22;;;;;;;;;;5034532;28;20064;-61
2024/03/19 13:27:19;;;;;;;5.67;2.47;;;;;;;;;;5034615;28;20038;-60
2024/03/19 13:29:46;;;;;;;7.40;2.40;;;;;;;;;;5033209;28;20049;-61
2024/03/19 13:32:11;;;;;;;4.35;1.98;;;;;;;;;;5015389;28;20032;-60
2024/03/19 13:34:36;;;;;;;5.20;2.10;;;;;;;;;;5010069;28;20026;-61
2024/03/19 13:37:02;;;;;;;5.45;2.30;;;;;;;;;;5012401;28;20025;-60
2024/03/19 13:39:27;;;;;;;5.47;2.10;;;;;;;;;;5012218;28;20014;-60
2024/03/19 13:41:52;;;;;;;5.43;1.92;;;;;;;;;;5009965;28;20088;-59
2024/03/19 13:44:18;;;;;;;5.17;2.10;;;;;;;;;;5012142;28;20022;-59
2024/03/19 13:46:43;;;;;;;5.57;2.20;;;;;;;;;;5013240;28;20013;-59
2024/03/19 13:49:09;;;;;;;7.95;2.30;;;;;;;;;;5014877;28;20033;-59
2024/03/19 13:51:36;;;;;;;6.53;2.60;;;;;;;;;;5010353;28;20040;-62
2024/03/19 13:54:05;;;;;;;5.55;2.30;;;;;;;;;;5012287;28;20024;-59
2024/03/19 13:56:30;;;;;;;5.57;2.53;;;;;;;;;;5008858;28;20548;-59
2024/03/19 13:58:55;;;;;;;5.17;1.90;;;;;;;;;;5008624;28;20029;-60
2024/03/19 14:01:21;;;;;;;5.90;2.30;;;;;;;;;;5012163;28;20053;-60
2024/03/19 14:03:48;;;;;;;6.07;2.38;;;;;;;;;;5010726;28;20045;-62
2024/03/19 14:06:13;;;;;;;5.82;2.47;;;;;;;;;;5011917;28;20513;-59
2024/03/19 14:08:38;;;;;;;4.88;2.15;;;;;;;;;;5012154;28;20014;-61
2024/03/19 14:11:04;;;;;;;5.85;2.65;;;;;;;;;;5012097;28;20389;-61
2024/03/19 14:13:30;;;;;;;6.13;2.30;;;;;;;;;;5011447;28;20058;-60
2024/03/19 14:15:55;;;;;;;4.77;2.13;;;;;;;;;;5011306;28;20017;-61
2024/03/19 14:18:20;;;;;;;4.70;2.00;;;;;;;;;;5009906;28;20063;-60
2024/03/19 14:20:45;;;;;;;5.20;1.98;;;;;;;;;;5012097;28;20105;-61
2024/03/19 14:23:11;;;;;;;5.53;1.88;;;;;;;;;;5011164;28;20030;-60
2024/03/19 14:25:37;;;;;;;5.40;2.60;;;;;;;;;;5011278;28;20112;-60
2024/03/19 14:28:03;;;;;;;5.20;2.50;;;;;;;;;;5012544;28;20042;-60